createdAt,value
2023-04-13T00:00:52.881Z,7.60
2023-04-13T00:03:19.643Z,7.70
2023-04-13T00:05:46.770Z,7.60
2023-04-13T00:08:13.971Z,7.60
2023-04-13T00:10:40.642Z,7.60
2023-04-13T00:13:09.569Z,7.60
2023-04-13T00:15:37.295Z,7.60
2023-04-13T00:18:04.497Z,7.70
2023-04-13T00:20:31.167Z,7.60
2023-04-13T00:22:57.914Z,7.60
2023-04-13T00:25:24.455Z,7.70
2023-04-13T00:27:51.309Z,7.70
2023-04-13T00:30:17.860Z,7.70
2023-04-13T00:32:45.238Z,7.70
2023-04-13T00:35:16.856Z,7.60
2023-04-13T00:37:43.402Z,7.60
2023-04-13T00:40:10.529Z,7.50
2023-04-13T00:42:37.117Z,7.60
2023-04-13T00:45:03.920Z,7.60
2023-04-13T00:47:33.856Z,7.60
2023-04-13T00:50:01.995Z,7.60
2023-04-13T00:52:29.103Z,7.50
2023-04-13T00:54:57.650Z,7.50
2023-04-13T00:57:25.237Z,7.40
2023-04-13T00:59:55.173Z,7.40
2023-04-13T01:02:23.126Z,7.30
2023-04-13T01:04:50.117Z,7.30
2023-04-13T01:07:38.866Z,7.20
2023-04-13T01:10:36.649Z,7.30
2023-04-13T01:13:15.163Z,7.20
2023-04-13T01:15:56.663Z,7.20
2023-04-13T01:18:26.228Z,7.20
2023-04-13T01:20:53.881Z,7.20
2023-04-13T01:23:35.666Z,7.20
2023-04-13T01:26:04.371Z,7.20
2023-04-13T01:28:31.334Z,7.20
2023-04-13T01:30:58.648Z,7.20
2023-04-13T01:33:25.391Z,7.30
2023-04-13T01:35:52.206Z,7.20
2023-04-13T01:38:25.619Z,7.10
2023-04-13T01:40:52.325Z,7.10
2023-04-13T01:43:20.583Z,7.00
2023-04-13T01:45:53.258Z,7.00
2023-04-13T01:48:27.925Z,7.00
2023-04-13T01:51:01.031Z,7.00
2023-04-13T01:53:35.547Z,6.90
2023-04-13T01:56:03.261Z,6.90
2023-04-13T01:58:32.588Z,6.90
2023-04-13T02:00:59.787Z,6.90
2023-04-13T02:03:26.622Z,6.80
2023-04-13T02:05:53.242Z,6.80
2023-04-13T02:08:19.766Z,6.70
2023-04-13T02:10:46.477Z,6.70
2023-04-13T02:13:13.030Z,6.70
2023-04-13T02:15:41.500Z,6.70
2023-04-13T02:18:08.065Z,6.60
2023-04-13T02:20:38.303Z,6.60
2023-04-13T02:23:04.865Z,6.60
2023-04-13T02:25:31.428Z,6.60
2023-04-13T02:27:57.950Z,6.50
2023-04-13T02:30:24.503Z,6.50
2023-04-13T02:32:51.120Z,6.50
2023-04-13T02:35:17.831Z,6.50
2023-04-13T02:37:44.411Z,6.50
2023-04-13T02:40:11.223Z,6.50
2023-04-13T02:42:41.436Z,6.50
2023-04-13T02:45:09.320Z,6.50
2023-04-13T02:47:35.943Z,6.40
2023-04-13T02:50:02.529Z,6.40
2023-04-13T02:52:29.436Z,6.40
2023-04-13T02:54:56.270Z,6.40
2023-04-13T02:57:23.368Z,6.40
2023-04-13T02:59:50.598Z,6.40
2023-04-13T03:02:18.561Z,6.30
2023-04-13T03:04:45.174Z,6.30
2023-04-13T03:07:12.478Z,6.30
2023-04-13T03:09:42.719Z,6.30
2023-04-13T03:12:09.508Z,6.20
2023-04-13T03:14:36.948Z,6.20
2023-04-13T03:17:04.282Z,6.20
2023-04-13T03:19:31.606Z,6.20
2023-04-13T03:21:58.215Z,6.20
2023-04-13T03:24:25.305Z,6.20
2023-04-13T03:26:51.861Z,6.20
2023-04-13T03:29:18.422Z,6.10
2023-04-13T03:31:45.048Z,6.10
2023-04-13T03:34:11.631Z,6.10
2023-04-13T03:36:38.206Z,6.10
2023-04-13T03:39:04.789Z,6.10
2023-04-13T03:41:31.384Z,6.10
2023-04-13T03:43:58.208Z,6.10
2023-04-13T03:46:25.140Z,6.10
2023-04-13T03:48:51.708Z,6.10
2023-04-13T03:51:18.259Z,6.10
2023-04-13T03:53:45.779Z,6.10
2023-04-13T03:56:12.359Z,6.00
2023-04-13T03:58:38.955Z,6.00
2023-04-13T04:01:05.860Z,6.00
2023-04-13T04:03:32.519Z,6.00
2023-04-13T04:05:59.163Z,6.10
2023-04-13T04:08:25.749Z,6.00
2023-04-13T04:10:52.288Z,6.00
2023-04-13T04:13:18.883Z,6.00
2023-04-13T04:15:45.477Z,6.00
2023-04-13T04:18:12.055Z,6.00
2023-04-13T04:20:38.862Z,6.00
2023-04-13T04:23:05.516Z,6.00
2023-04-13T04:25:32.149Z,6.10
2023-04-13T04:27:59.031Z,6.10
2023-04-13T04:30:25.666Z,6.00
2023-04-13T04:32:52.306Z,6.00
2023-04-13T04:35:19.658Z,6.10
2023-04-13T04:37:46.626Z,6.00
2023-04-13T04:40:13.269Z,6.00
2023-04-13T04:42:39.811Z,6.00
2023-04-13T04:45:07.250Z,6.00
2023-04-13T04:47:34.092Z,6.00
2023-04-13T04:50:00.700Z,6.00
2023-04-13T04:52:27.504Z,6.00
2023-04-13T04:54:54.050Z,6.00
2023-04-13T04:57:20.601Z,6.00
2023-04-13T04:59:47.184Z,6.00
2023-04-13T05:02:13.742Z,6.00
2023-04-13T05:04:40.344Z,6.00
2023-04-13T05:07:07.201Z,5.90
2023-04-13T05:09:34.384Z,6.00
2023-04-13T05:12:00.939Z,6.00
2023-04-13T05:14:27.563Z,6.00
2023-04-13T05:16:54.188Z,6.00
2023-04-13T05:19:20.760Z,6.00
2023-04-13T05:21:47.333Z,6.00
2023-04-13T05:24:13.930Z,6.00
2023-04-13T05:26:42.060Z,6.00
2023-04-13T05:29:08.709Z,6.00
2023-04-13T05:31:35.502Z,6.00
2023-04-13T05:34:02.124Z,6.00
2023-04-13T05:36:28.749Z,6.00
2023-04-13T05:38:55.310Z,6.00
2023-04-13T05:41:21.919Z,6.00
2023-04-13T05:43:48.537Z,6.10
2023-04-13T05:46:15.191Z,6.10
2023-04-13T05:48:42.089Z,6.10
2023-04-13T05:51:08.719Z,6.10
2023-04-13T05:53:35.308Z,6.10
2023-04-13T05:56:01.964Z,6.10
2023-04-13T05:58:28.565Z,6.10
2023-04-13T06:00:55.105Z,6.20
2023-04-13T06:03:21.757Z,6.20
2023-04-13T06:05:48.669Z,6.20
2023-04-13T06:08:15.292Z,6.30
2023-04-13T06:10:41.829Z,6.30
2023-04-13T06:13:08.436Z,6.30
2023-04-13T06:15:36.442Z,6.30
2023-04-13T06:18:03.138Z,6.20
2023-04-13T06:20:29.866Z,6.30
2023-04-13T06:22:56.435Z,6.40
2023-04-13T06:25:23.086Z,6.40
2023-04-13T06:27:50.095Z,6.40
2023-04-13T06:30:16.959Z,6.40
2023-04-13T06:32:43.643Z,6.50
2023-04-13T06:35:13.283Z,6.40
2023-04-13T06:37:39.867Z,6.50
2023-04-13T06:40:07.640Z,6.40
2023-04-13T06:42:34.219Z,6.50
2023-04-13T06:45:00.810Z,6.50
2023-04-13T06:47:27.367Z,6.50
2023-04-13T06:49:53.946Z,6.50
2023-04-13T06:52:20.514Z,6.60
2023-04-13T06:54:47.136Z,6.60
2023-04-13T06:57:13.725Z,6.60
2023-04-13T06:59:40.289Z,6.60
2023-04-13T07:02:07.019Z,6.60
2023-04-13T07:04:34.195Z,6.60
2023-04-13T07:07:01.014Z,6.60
2023-04-13T07:09:27.655Z,6.60
2023-04-13T07:11:54.225Z,6.70
2023-04-13T07:14:20.838Z,6.70
2023-04-13T07:16:49.518Z,6.70
2023-04-13T07:19:16.359Z,6.80
2023-04-13T07:21:42.924Z,6.90
2023-04-13T07:24:09.611Z,7.00
2023-04-13T07:26:36.216Z,7.00
2023-04-13T07:29:02.781Z,7.00
2023-04-13T07:31:29.456Z,7.10
2023-04-13T07:33:56.077Z,7.00
2023-04-13T07:36:22.649Z,7.00
2023-04-13T07:38:49.196Z,7.10
2023-04-13T07:41:15.784Z,6.90
2023-04-13T07:43:42.330Z,7.00
2023-04-13T07:46:09.767Z,7.00
2023-04-13T07:48:36.379Z,7.10
2023-04-13T07:51:06.333Z,7.20
2023-04-13T07:53:33.066Z,7.30
2023-04-13T07:55:59.768Z,7.40
2023-04-13T07:58:26.305Z,7.60
2023-04-13T08:00:52.866Z,7.60
2023-04-13T08:03:19.554Z,7.70
2023-04-13T08:05:47.250Z,7.80
2023-04-13T08:08:13.996Z,7.80
2023-04-13T08:10:40.580Z,7.80
2023-04-13T08:13:07.150Z,7.90
2023-04-13T08:15:33.748Z,8.00
2023-04-13T08:18:00.346Z,8.10
2023-04-13T08:20:26.906Z,8.00
2023-04-13T08:22:53.487Z,8.10
2023-04-13T08:25:20.214Z,8.10
2023-04-13T08:27:46.849Z,8.10
2023-04-13T08:30:13.453Z,8.20
2023-04-13T08:32:40.166Z,8.20
2023-04-13T08:35:07.376Z,8.20
2023-04-13T08:37:34.323Z,8.30
2023-04-13T08:40:01.011Z,8.40
2023-04-13T08:42:29.028Z,8.50
2023-04-13T08:44:58.015Z,8.60
2023-04-13T08:47:27.225Z,8.50
2023-04-13T08:49:57.885Z,8.50
2023-04-13T08:52:25.131Z,8.60
2023-04-13T08:54:53.761Z,8.60
2023-04-13T08:57:21.050Z,8.60
2023-04-13T08:59:51.054Z,8.70
2023-04-13T09:02:20.513Z,8.80
2023-04-13T09:04:48.592Z,8.90
2023-04-13T09:07:20.912Z,8.90
2023-04-13T09:09:48.240Z,8.80
2023-04-13T09:12:15.054Z,9.00
2023-04-13T09:14:43.198Z,9.00
2023-04-13T09:17:09.815Z,9.00
2023-04-13T09:19:36.413Z,9.20
2023-04-13T09:22:13.346Z,9.40
2023-04-13T09:24:40.715Z,9.40
2023-04-13T09:27:26.465Z,9.50
2023-04-13T09:29:54.568Z,9.60
2023-04-13T09:32:21.772Z,9.60
2023-04-13T09:35:06.108Z,9.70
2023-04-13T09:37:33.178Z,9.80
2023-04-13T09:40:08.806Z,9.90
2023-04-13T09:42:36.501Z,10.00
2023-04-13T09:45:05.587Z,10.10
2023-04-13T09:47:36.312Z,10.30
2023-04-13T09:50:03.588Z,10.40
2023-04-13T09:52:30.798Z,10.40
2023-04-13T09:54:58.094Z,10.40
2023-04-13T09:57:29.117Z,10.40
2023-04-13T09:59:56.839Z,10.30
2023-04-13T10:02:23.899Z,10.00
2023-04-13T10:04:50.590Z,10.10
2023-04-13T10:07:17.216Z,10.10
2023-04-13T10:09:44.046Z,10.00
2023-04-13T10:12:11.769Z,10.00
2023-04-13T10:14:41.127Z,10.00
2023-04-13T10:17:10.477Z,9.70
2023-04-13T10:19:40.576Z,9.70
2023-04-13T10:22:09.180Z,9.60
2023-04-13T10:24:38.639Z,9.70
2023-04-13T10:27:20.300Z,9.80
2023-04-13T10:29:47.556Z,10.00
2023-04-13T10:32:25.159Z,9.90
2023-04-13T10:34:52.917Z,9.80
2023-04-13T10:37:21.099Z,9.80
2023-04-13T10:39:47.906Z,9.80
2023-04-13T10:42:17.246Z,9.80
2023-04-13T10:44:51.879Z,9.90
2023-04-13T10:47:20.404Z,9.80
2023-04-13T10:49:48.682Z,9.90
2023-04-13T10:52:16.653Z,9.90
2023-04-13T10:54:43.917Z,9.80
2023-04-13T10:57:11.713Z,9.70
2023-04-13T11:02:18.131Z,9.50
2023-04-13T11:04:47.171Z,9.40
2023-04-13T11:07:16.501Z,9.50
2023-04-13T11:09:43.854Z,9.40
2023-04-13T11:12:12.872Z,9.50
2023-04-13T11:14:39.843Z,9.50
2023-04-13T11:17:07.455Z,9.50
2023-04-13T11:19:49.777Z,9.50
2023-04-13T11:22:18.433Z,9.40
2023-04-13T11:24:46.244Z,9.50
2023-04-13T11:27:25.594Z,9.50
2023-04-13T11:30:00.004Z,9.50
2023-04-13T11:32:26.941Z,9.60
2023-04-13T11:34:53.678Z,9.60
2023-04-13T11:37:20.392Z,9.70
2023-04-13T11:39:46.999Z,9.50
2023-04-13T11:42:13.611Z,9.40
2023-04-13T11:44:40.244Z,9.50
2023-04-13T11:47:06.852Z,9.50
2023-04-13T11:49:33.884Z,9.50
2023-04-13T11:52:01.576Z,9.50
2023-04-13T11:54:30.201Z,9.50
2023-04-13T11:56:56.987Z,9.50
2023-04-13T11:59:24.806Z,9.50
2023-04-13T12:01:58.042Z,9.40
2023-04-13T12:04:39.501Z,9.40
2023-04-13T12:07:11.782Z,9.30
2023-04-13T12:15:10.772Z,9.20
2023-04-13T12:17:48.379Z,9.30
2023-04-13T12:20:16.791Z,9.30
2023-04-13T12:25:17.836Z,9.20
2023-04-13T12:27:45.013Z,9.20
2023-04-13T12:30:16.106Z,9.20
2023-04-13T12:32:44.752Z,9.30
2023-04-13T12:35:11.412Z,9.30
2023-04-13T12:37:42.497Z,9.30
2023-04-13T12:40:10.920Z,9.40
2023-04-13T12:42:38.128Z,9.50
2023-04-13T12:45:05.373Z,9.40
2023-04-13T12:47:31.948Z,9.40
2023-04-13T12:49:58.553Z,9.40
2023-04-13T12:52:25.138Z,9.40
2023-04-13T12:54:51.679Z,9.40
2023-04-13T12:57:18.281Z,9.50
2023-04-13T12:59:45.385Z,9.60
2023-04-13T13:02:12.032Z,9.60
2023-04-13T13:04:38.703Z,9.60
2023-04-13T13:07:05.297Z,9.50
2023-04-13T13:09:31.880Z,9.50
2023-04-13T13:11:58.520Z,9.50
2023-04-13T13:14:25.101Z,9.60
2023-04-13T13:16:51.772Z,9.50
2023-04-13T13:19:18.495Z,9.60
2023-04-13T13:21:45.068Z,9.70
2023-04-13T13:24:11.627Z,9.70
2023-04-13T13:27:00.059Z,9.70
2023-04-13T13:29:25.211Z,9.60
2023-04-13T13:31:51.832Z,9.50
2023-04-13T13:34:18.590Z,9.50
2023-04-13T13:36:45.312Z,9.30
2023-04-13T13:39:11.936Z,9.30
2023-04-13T13:41:38.494Z,9.20
2023-04-13T13:44:05.117Z,9.30
2023-04-13T13:46:31.814Z,9.30
2023-04-13T13:48:58.672Z,9.30
2023-04-13T13:51:25.585Z,9.40
2023-04-13T13:53:52.297Z,9.30
2023-04-13T13:56:19.566Z,9.20
2023-04-13T13:58:46.166Z,9.30
2023-04-13T14:01:12.906Z,9.30
2023-04-13T14:03:39.617Z,9.20
2023-04-13T14:06:06.798Z,9.30
2023-04-13T14:08:33.341Z,9.30
2023-04-13T14:11:00.018Z,9.20
2023-04-13T14:13:27.196Z,9.20
2023-04-13T14:15:53.785Z,9.20
2023-04-13T14:18:20.411Z,9.20
2023-04-13T14:20:47.125Z,9.20
2023-04-13T14:23:13.686Z,9.10
2023-04-13T14:25:40.327Z,9.20
2023-04-13T14:28:07.082Z,9.20
2023-04-13T14:30:33.704Z,9.10
2023-04-13T14:33:00.851Z,9.10
2023-04-13T14:35:27.572Z,9.10
2023-04-13T14:37:54.150Z,9.10
2023-04-13T14:40:20.700Z,9.00
2023-04-13T14:42:47.898Z,9.00
2023-04-13T14:45:14.529Z,9.00
2023-04-13T14:47:41.134Z,9.00
2023-04-13T14:50:08.630Z,8.90
2023-04-13T14:52:35.629Z,9.00
2023-04-13T14:55:02.376Z,8.90
2023-04-13T14:57:28.999Z,8.90
2023-04-13T14:59:56.562Z,8.90
2023-04-13T15:02:23.500Z,8.80
2023-04-13T15:04:50.384Z,8.80
2023-04-13T15:07:17.049Z,8.90
2023-04-13T15:09:43.596Z,8.80
2023-04-13T15:12:12.609Z,8.80
2023-04-13T15:14:40.161Z,8.80
2023-04-13T15:17:06.771Z,8.80
2023-04-13T15:19:33.495Z,8.90
2023-04-13T15:22:00.079Z,8.90
2023-04-13T15:24:26.653Z,8.90
2023-04-13T15:26:53.272Z,8.90
2023-04-13T15:29:19.832Z,8.90
2023-04-13T15:31:46.554Z,8.90
2023-04-13T15:34:13.231Z,8.90
2023-04-13T15:36:39.820Z,8.90
2023-04-13T15:39:06.460Z,8.90
2023-04-13T15:41:36.121Z,8.90
2023-04-13T15:44:02.709Z,8.90
2023-04-13T15:46:29.434Z,9.00
2023-04-13T15:48:56.503Z,8.90
2023-04-13T15:51:23.232Z,8.90
2023-04-13T15:53:49.884Z,8.90
2023-04-13T15:56:17.323Z,8.90
2023-04-13T15:58:44.055Z,8.90
2023-04-13T16:01:11.330Z,8.90
2023-04-13T16:03:38.273Z,8.90
2023-04-13T16:06:05.119Z,8.90
2023-04-13T16:08:31.698Z,8.90
2023-04-13T16:10:58.333Z,8.90
2023-04-13T16:13:28.299Z,8.80
2023-04-13T16:16:01.329Z,8.80
2023-04-13T16:18:27.980Z,8.80
2023-04-13T16:20:58.649Z,8.80
2023-04-13T16:23:25.827Z,8.80
2023-04-13T16:25:52.388Z,8.80
2023-04-13T16:28:19.090Z,8.70
2023-04-13T16:30:45.876Z,8.80
2023-04-13T16:33:12.492Z,8.70
2023-04-13T16:35:39.079Z,8.70
2023-04-13T16:38:05.706Z,8.60
2023-04-13T16:40:32.568Z,8.60
2023-04-13T16:42:59.295Z,8.70
2023-04-13T16:45:25.899Z,8.50
2023-04-13T16:47:55.736Z,8.50
2023-04-13T16:50:22.553Z,8.40
2023-04-13T16:52:49.223Z,8.40
2023-04-13T16:55:15.792Z,8.30
2023-04-13T16:57:43.092Z,8.30
2023-04-13T17:00:10.971Z,8.30
2023-04-13T17:02:39.528Z,8.30
2023-04-13T17:05:07.585Z,8.30
2023-04-13T17:07:35.329Z,8.20
2023-04-13T17:10:05.501Z,8.20
2023-04-13T17:12:32.177Z,8.20
2023-04-13T17:14:58.905Z,8.20
2023-04-13T17:17:25.467Z,8.00
2023-04-13T17:19:52.830Z,8.00
2023-04-13T17:22:20.164Z,7.90
2023-04-13T17:24:46.762Z,8.00
2023-04-13T17:27:13.329Z,8.00
2023-04-13T17:29:39.931Z,7.90
2023-04-13T17:32:06.704Z,7.90
2023-04-13T17:34:33.545Z,7.70
2023-04-13T17:37:00.110Z,7.70
2023-04-13T17:39:27.641Z,7.60
2023-04-13T17:41:54.204Z,7.50
2023-04-13T17:44:20.810Z,7.40
2023-04-13T17:46:47.373Z,7.40
2023-04-13T17:49:13.909Z,7.30
2023-04-13T17:51:40.669Z,7.30
2023-04-13T17:54:07.224Z,7.30
2023-04-13T17:56:33.750Z,7.30
2023-04-13T17:59:00.502Z,7.20
2023-04-13T18:01:27.365Z,7.30
2023-04-13T18:03:54.059Z,7.20
2023-04-13T18:06:20.653Z,7.20
2023-04-13T18:08:47.167Z,7.30
2023-04-13T18:11:13.766Z,7.20
2023-04-13T18:13:40.414Z,7.20
2023-04-13T18:16:07.210Z,7.20
2023-04-13T18:18:33.832Z,7.10
2023-04-13T18:21:00.378Z,7.10
2023-04-13T18:23:27.074Z,7.00
2023-04-13T18:25:53.631Z,7.00
2023-04-13T18:28:20.289Z,7.00
2023-04-13T18:30:47.658Z,7.00
2023-04-13T18:33:14.233Z,7.00
2023-04-13T18:35:42.516Z,6.90
2023-04-13T18:38:09.304Z,6.80
2023-04-13T18:40:35.956Z,6.80
2023-04-13T18:43:02.836Z,6.90
2023-04-13T18:45:29.448Z,6.90
2023-04-13T18:47:56.095Z,6.80
2023-04-13T18:50:22.703Z,6.80
2023-04-13T18:52:49.321Z,6.80
2023-04-13T18:55:15.999Z,6.80
2023-04-13T18:57:42.655Z,6.70
2023-04-13T19:00:10.145Z,6.80
2023-04-13T19:02:37.184Z,6.80
2023-04-13T19:05:04.273Z,6.80
2023-04-13T19:07:30.905Z,6.60
2023-04-13T19:09:57.448Z,6.50
2023-04-13T19:12:24.051Z,6.40
2023-04-13T19:14:50.628Z,6.50
2023-04-13T19:17:17.190Z,6.50
2023-04-13T19:19:43.756Z,6.50
2023-04-13T19:22:10.309Z,6.60
2023-04-13T19:24:36.856Z,6.60
2023-04-13T19:27:03.414Z,6.70
2023-04-13T19:29:30.089Z,6.70
2023-04-13T19:31:56.797Z,6.70
2023-04-13T19:34:23.394Z,6.70
2023-04-13T19:36:49.941Z,6.70
2023-04-13T19:39:16.513Z,6.70
2023-04-13T19:41:43.375Z,6.70
2023-04-13T19:44:09.930Z,6.60
2023-04-13T19:46:37.133Z,6.60
2023-04-13T19:49:03.767Z,6.50
2023-04-13T19:51:31.401Z,6.60
2023-04-13T19:53:58.448Z,6.50
2023-04-13T19:56:25.537Z,6.40
2023-04-13T19:58:52.310Z,6.40
2023-04-13T20:01:19.681Z,6.30
2023-04-13T20:03:46.849Z,6.30
2023-04-13T20:06:13.787Z,6.20
2023-04-13T20:08:43.445Z,6.30
2023-04-13T20:11:10.778Z,6.30
2023-04-13T20:13:38.462Z,6.30
2023-04-13T20:16:05.175Z,6.30
2023-04-13T20:18:32.281Z,6.30
2023-04-13T20:20:58.845Z,6.20
2023-04-13T20:23:25.477Z,6.20
2023-04-13T20:25:52.051Z,6.20
2023-04-13T20:28:18.750Z,6.10
2023-04-13T20:30:45.320Z,6.10
2023-04-13T20:33:11.940Z,6.00
2023-04-13T20:35:38.518Z,6.00
2023-04-13T20:38:05.107Z,6.00
2023-04-13T20:40:31.938Z,6.00
2023-04-13T20:42:58.570Z,6.10
2023-04-13T20:45:25.244Z,6.10
2023-04-13T20:47:52.021Z,6.10
2023-04-13T20:50:18.634Z,6.00
2023-04-13T20:52:45.171Z,6.00
2023-04-13T20:55:11.791Z,6.00
2023-04-13T20:57:38.507Z,5.90
2023-04-13T21:00:05.709Z,5.90
2023-04-13T21:02:32.397Z,5.90
2023-04-13T21:04:59.085Z,5.90
2023-04-13T21:07:25.642Z,5.90
2023-04-13T21:09:52.204Z,5.90
2023-04-13T21:12:18.752Z,5.80
2023-04-13T21:14:45.295Z,5.80
2023-04-13T21:17:11.912Z,5.80
2023-04-13T21:19:38.460Z,5.80
2023-04-13T21:22:05.135Z,5.80
2023-04-13T21:24:31.714Z,5.80
2023-04-13T21:26:58.272Z,5.80
2023-04-13T21:29:24.940Z,5.70
2023-04-13T21:31:51.602Z,5.70
2023-04-13T21:34:18.267Z,5.70
2023-04-13T21:39:15.386Z,5.60
2023-04-13T21:41:41.992Z,5.70
2023-04-13T21:44:22.288Z,5.70
2023-04-13T21:46:53.034Z,5.60
2023-04-13T21:49:19.585Z,5.50
2023-04-13T21:51:46.139Z,5.50
2023-04-13T21:54:12.748Z,5.50
2023-04-13T21:56:39.303Z,5.50
2023-04-13T21:59:05.867Z,5.60
2023-04-13T22:01:32.515Z,5.70
2023-04-13T22:03:59.163Z,5.80
2023-04-13T22:06:26.899Z,5.80
2023-04-13T22:08:53.575Z,5.80
2023-04-13T22:11:20.214Z,5.80
2023-04-13T22:13:46.820Z,5.80
2023-04-13T22:16:13.462Z,5.80
2023-04-13T22:18:40.026Z,5.70
2023-04-13T22:21:06.575Z,5.80
2023-04-13T22:23:33.164Z,5.70
2023-04-13T22:25:59.708Z,5.70
2023-04-13T22:28:26.344Z,5.70
2023-04-13T22:30:53.070Z,5.70
2023-04-13T22:33:20.540Z,5.80
2023-04-13T22:35:47.412Z,5.70
2023-04-13T22:38:13.966Z,5.70
2023-04-13T22:40:40.506Z,5.80
2023-04-13T22:43:07.039Z,5.80
2023-04-13T22:45:33.592Z,5.80
2023-04-13T22:48:00.234Z,5.70
2023-04-13T22:50:26.860Z,5.70
2023-04-13T22:52:53.479Z,5.70
2023-04-13T22:55:20.311Z,5.60
2023-04-13T22:57:46.883Z,5.60
2023-04-13T23:00:14.221Z,5.70
2023-04-13T23:02:41.129Z,5.70
2023-04-13T23:05:08.172Z,5.70
2023-04-13T23:07:34.842Z,5.80
2023-04-13T23:10:01.528Z,5.70
2023-04-13T23:12:28.534Z,5.70
2023-04-13T23:14:55.093Z,5.70
2023-04-13T23:17:21.753Z,5.70
2023-04-13T23:19:48.326Z,5.60
2023-04-13T23:22:14.915Z,5.60
2023-04-13T23:24:41.451Z,5.60
2023-04-13T23:27:07.996Z,5.50
2023-04-13T23:29:34.621Z,5.50
2023-04-13T23:32:01.215Z,5.40
2023-04-13T23:34:27.746Z,5.40
2023-04-13T23:36:54.332Z,5.40
2023-04-13T23:39:20.896Z,5.40
2023-04-13T23:41:47.450Z,5.50
2023-04-13T23:44:14.031Z,5.50
2023-04-13T23:46:40.685Z,5.50
2023-04-13T23:49:07.287Z,5.50
2023-04-13T23:51:33.820Z,5.60
2023-04-13T23:54:00.350Z,5.60
2023-04-13T23:56:26.941Z,5.60
2023-04-13T23:58:53.585Z,5.60
